sensor_id;sensor_type;location;lat;lon;timestamp;temperature;humidity
17849;DHT22;9050;48.746;9.232;2022-07-29T00:02:00;18.60;99.90
17849;DHT22;9050;48.746;9.232;2022-07-29T00:04:27;18.70;99.90
17849;DHT22;9050;48.746;9.232;2022-07-29T00:06:54;18.70;99.90
17849;DHT22;9050;48.746;9.232;2022-07-29T00:09:21;18.70;99.90
17849;DHT22;9050;48.746;9.232;2022-07-29T00:11:48;18.80;99.90
17849;DHT22;9050;48.746;9.232;2022-07-29T00:14:15;18.80;99.90
17849;DHT22;9050;48.746;9.232;2022-07-29T00:16:42;18.80;99.90
17849;DHT22;9050;48.746;9.232;2022-07-29T00:19:11;18.80;99.90
17849;DHT22;9050;48.746;9.232;2022-07-29T00:21:37;18.70;99.90
17849;DHT22;9050;48.746;9.232;2022-07-29T00:24:05;18.70;99.90
17849;DHT22;9050;48.746;9.232;2022-07-29T00:26:31;18.70;99.90
17849;DHT22;9050;48.746;9.232;2022-07-29T00:28:59;18.60;99.90
17849;DHT22;9050;48.746;9.232;2022-07-29T00:31:26;18.60;99.90
17849;DHT22;9050;48.746;9.232;2022-07-29T00:33:53;18.50;99.90
17849;DHT22;9050;48.746;9.232;2022-07-29T00:36:21;18.50;99.90
17849;DHT22;9050;48.746;9.232;2022-07-29T00:38:47;18.40;99.90
17849;DHT22;9050;48.746;9.232;2022-07-29T00:41:14;18.40;99.90
17849;DHT22;9050;48.746;9.232;2022-07-29T00:43:41;18.30;99.90
17849;DHT22;9050;48.746;9.232;2022-07-29T00:46:08;18.30;99.90
17849;DHT22;9050;48.746;9.232;2022-07-29T00:48:35;18.20;99.90
17849;DHT22;9050;48.746;9.232;2022-07-29T00:51:04;18.20;99.90
17849;DHT22;9050;48.746;9.232;2022-07-29T00:53:32;18.10;99.90
17849;DHT22;9050;48.746;9.232;2022-07-29T00:56:00;18.10;99.90
17849;DHT22;9050;48.746;9.232;2022-07-29T00:58:27;18.20;99.90
17849;DHT22;9050;48.746;9.232;2022-07-29T01:00:54;18.10;99.90
17849;DHT22;9050;48.746;9.232;2022-07-29T01:03:21;18.20;99.90
17849;DHT22;9050;48.746;9.232;2022-07-29T01:05:48;18.10;99.90
17849;DHT22;9050;48.746;9.232;2022-07-29T01:08:16;18.10;99.90
17849;DHT22;9050;48.746;9.232;2022-07-29T01:10:45;18.10;99.90
17849;DHT22;9050;48.746;9.232;2022-07-29T01:13:14;18.10;99.90
17849;DHT22;9050;48.746;9.232;2022-07-29T01:15:44;18.10;99.90
17849;DHT22;9050;48.746;9.232;2022-07-29T01:18:17;18.10;99.90
17849;DHT22;9050;48.746;9.232;2022-07-29T01:23:56;18.10;99.90
17849;DHT22;9050;48.746;9.232;2022-07-29T01:26:37;18.10;99.90
17849;DHT22;9050;48.746;9.232;2022-07-29T01:29:12;18.10;99.90
17849;DHT22;9050;48.746;9.232;2022-07-29T01:31:47;18.10;99.90
17849;DHT22;9050;48.746;9.232;2022-07-29T01:34:18;18.10;99.90
17849;DHT22;9050;48.746;9.232;2022-07-29T01:36:50;18.10;99.90
17849;DHT22;9050;48.746;9.232;2022-07-29T01:39:19;18.10;99.90
17849;DHT22;9050;48.746;9.232;2022-07-29T01:41:56;18.00;99.90
17849;DHT22;9050;48.746;9.232;2022-07-29T01:44:30;18.00;99.90
17849;DHT22;9050;48.746;9.232;2022-07-29T01:47:04;17.90;99.90
17849;DHT22;9050;48.746;9.232;2022-07-29T01:49:36;17.90;99.90
17849;DHT22;9050;48.746;9.232;2022-07-29T01:52:09;17.90;99.90
17849;DHT22;9050;48.746;9.232;2022-07-29T01:54:39;17.90;99.90
17849;DHT22;9050;48.746;9.232;2022-07-29T01:57:11;17.80;99.90
17849;DHT22;9050;48.746;9.232;2022-07-29T01:59:41;17.70;99.90
17849;DHT22;9050;48.746;9.232;2022-07-29T02:02:11;17.70;99.90
17849;DHT22;9050;48.746;9.232;2022-07-29T02:04:41;17.70;99.90
17849;DHT22;9050;48.746;9.232;2022-07-29T02:07:15;17.60;99.90
17849;DHT22;9050;48.746;9.232;2022-07-29T02:09:43;17.60;99.90
17849;DHT22;9050;48.746;9.232;2022-07-29T02:12:11;17.60;99.90
17849;DHT22;9050;48.746;9.232;2022-07-29T02:14:44;17.60;99.90
17849;DHT22;9050;48.746;9.232;2022-07-29T02:17:13;17.50;99.90
17849;DHT22;9050;48.746;9.232;2022-07-29T02:19:43;17.60;99.90
17849;DHT22;9050;48.746;9.232;2022-07-29T02:22:11;17.50;99.90
17849;DHT22;9050;48.746;9.232;2022-07-29T02:24:39;17.40;99.90
17849;DHT22;9050;48.746;9.232;2022-07-29T02:27:07;17.50;99.90
17849;DHT22;9050;48.746;9.232;2022-07-29T02:29:35;17.50;99.90
17849;DHT22;9050;48.746;9.232;2022-07-29T02:32:05;17.50;99.90
17849;DHT22;9050;48.746;9.232;2022-07-29T02:34:34;17.50;99.90
17849;DHT22;9050;48.746;9.232;2022-07-29T02:37:03;17.50;99.90
17849;DHT22;9050;48.746;9.232;2022-07-29T02:39:30;17.40;99.90
17849;DHT22;9050;48.746;9.232;2022-07-29T02:42:02;17.40;99.90
17849;DHT22;9050;48.746;9.232;2022-07-29T02:44:30;17.40;99.90
17849;DHT22;9050;48.746;9.232;2022-07-29T02:47:04;17.40;99.90
17849;DHT22;9050;48.746;9.232;2022-07-29T02:49:36;17.40;99.90
17849;DHT22;9050;48.746;9.232;2022-07-29T02:52:08;17.40;99.90
17849;DHT22;9050;48.746;9.232;2022-07-29T02:54:40;17.30;99.90
17849;DHT22;9050;48.746;9.232;2022-07-29T02:57:13;17.30;99.90
17849;DHT22;9050;48.746;9.232;2022-07-29T02:59:42;17.30;99.90
17849;DHT22;9050;48.746;9.232;2022-07-29T03:02:13;17.30;99.90
17849;DHT22;9050;48.746;9.232;2022-07-29T03:04:42;17.30;99.90
17849;DHT22;9050;48.746;9.232;2022-07-29T03:07:10;17.30;99.90
17849;DHT22;9050;48.746;9.232;2022-07-29T03:09:39;17.30;99.90
17849;DHT22;9050;48.746;9.232;2022-07-29T03:12:07;17.20;99.90
17849;DHT22;9050;48.746;9.232;2022-07-29T03:14:35;17.30;99.90
17849;DHT22;9050;48.746;9.232;2022-07-29T03:17:03;17.30;99.90
17849;DHT22;9050;48.746;9.232;2022-07-29T03:19:33;17.30;99.90
17849;DHT22;9050;48.746;9.232;2022-07-29T03:22:01;17.30;99.90
17849;DHT22;9050;48.746;9.232;2022-07-29T03:24:30;17.30;99.90
17849;DHT22;9050;48.746;9.232;2022-07-29T03:26:57;17.30;99.90
17849;DHT22;9050;48.746;9.232;2022-07-29T03:29:25;17.30;99.90
17849;DHT22;9050;48.746;9.232;2022-07-29T03:31:52;17.30;99.90
17849;DHT22;9050;48.746;9.232;2022-07-29T03:34:19;17.30;99.90
17849;DHT22;9050;48.746;9.232;2022-07-29T03:36:48;17.30;99.90
17849;DHT22;9050;48.746;9.232;2022-07-29T03:39:17;17.30;99.90
17849;DHT22;9050;48.746;9.232;2022-07-29T03:41:47;17.20;99.90
17849;DHT22;9050;48.746;9.232;2022-07-29T03:44:15;17.20;99.90
17849;DHT22;9050;48.746;9.232;2022-07-29T03:46:43;17.20;99.90
17849;DHT22;9050;48.746;9.232;2022-07-29T03:49:14;17.30;99.90
17849;DHT22;9050;48.746;9.232;2022-07-29T03:51:42;17.20;99.90
17849;DHT22;9050;48.746;9.232;2022-07-29T03:54:11;17.20;99.90
17849;DHT22;9050;48.746;9.232;2022-07-29T03:56:42;17.20;99.90
17849;DHT22;9050;48.746;9.232;2022-07-29T03:59:11;17.20;99.90
17849;DHT22;9050;48.746;9.232;2022-07-29T04:01:39;17.20;99.90
17849;DHT22;9050;48.746;9.232;2022-07-29T04:04:07;17.20;99.90
17849;DHT22;9050;48.746;9.232;2022-07-29T04:06:39;17.20;99.90
17849;DHT22;9050;48.746;9.232;2022-07-29T04:09:06;17.20;99.90
17849;DHT22;9050;48.746;9.232;2022-07-29T04:11:36;17.10;99.90
17849;DHT22;9050;48.746;9.232;2022-07-29T04:14:03;17.20;99.90
17849;DHT22;9050;48.746;9.232;2022-07-29T04:16:30;17.20;99.90
17849;DHT22;9050;48.746;9.232;2022-07-29T04:18:58;17.20;99.90
17849;DHT22;9050;48.746;9.232;2022-07-29T04:21:25;17.20;99.90
17849;DHT22;9050;48.746;9.232;2022-07-29T04:23:52;17.20;99.90
17849;DHT22;9050;48.746;9.232;2022-07-29T04:26:20;17.20;99.90
17849;DHT22;9050;48.746;9.232;2022-07-29T04:28:48;17.30;99.90
17849;DHT22;9050;48.746;9.232;2022-07-29T04:31:15;17.30;99.90
17849;DHT22;9050;48.746;9.232;2022-07-29T04:33:42;17.40;99.90
17849;DHT22;9050;48.746;9.232;2022-07-29T04:36:09;17.40;99.90
17849;DHT22;9050;48.746;9.232;2022-07-29T04:38:37;17.50;99.90
17849;DHT22;9050;48.746;9.232;2022-07-29T04:41:04;17.50;99.90
17849;DHT22;9050;48.746;9.232;2022-07-29T04:43:32;17.50;99.90
17849;DHT22;9050;48.746;9.232;2022-07-29T04:46:00;17.60;99.90
17849;DHT22;9050;48.746;9.232;2022-07-29T04:48:27;17.70;99.90
17849;DHT22;9050;48.746;9.232;2022-07-29T04:50:54;17.80;99.90
17849;DHT22;9050;48.746;9.232;2022-07-29T04:53:21;17.90;99.90
17849;DHT22;9050;48.746;9.232;2022-07-29T04:55:48;18.00;99.90
17849;DHT22;9050;48.746;9.232;2022-07-29T04:58:15;18.10;99.90
17849;DHT22;9050;48.746;9.232;2022-07-29T05:00:41;18.10;99.90
17849;DHT22;9050;48.746;9.232;2022-07-29T05:03:09;18.20;99.90
17849;DHT22;9050;48.746;9.232;2022-07-29T05:05:36;18.20;99.90
17849;DHT22;9050;48.746;9.232;2022-07-29T05:08:04;18.30;99.90
17849;DHT22;9050;48.746;9.232;2022-07-29T05:10:30;18.50;99.90
17849;DHT22;9050;48.746;9.232;2022-07-29T05:12:58;18.70;99.90
17849;DHT22;9050;48.746;9.232;2022-07-29T05:15:25;18.90;99.90
17849;DHT22;9050;48.746;9.232;2022-07-29T05:17:52;19.30;99.90
17849;DHT22;9050;48.746;9.232;2022-07-29T05:20:21;19.80;99.90
17849;DHT22;9050;48.746;9.232;2022-07-29T05:22:51;20.40;99.90
17849;DHT22;9050;48.746;9.232;2022-07-29T05:25:18;21.50;99.90
17849;DHT22;9050;48.746;9.232;2022-07-29T05:27:45;22.10;99.90
17849;DHT22;9050;48.746;9.232;2022-07-29T05:30:12;22.70;99.90
17849;DHT22;9050;48.746;9.232;2022-07-29T05:32:39;23.70;99.90
17849;DHT22;9050;48.746;9.232;2022-07-29T05:35:07;24.60;99.90
17849;DHT22;9050;48.746;9.232;2022-07-29T05:37:36;24.40;99.90
17849;DHT22;9050;48.746;9.232;2022-07-29T05:40:04;24.40;99.90
17849;DHT22;9050;48.746;9.232;2022-07-29T05:42:31;24.20;99.90
17849;DHT22;9050;48.746;9.232;2022-07-29T05:44:58;24.60;99.90
17849;DHT22;9050;48.746;9.232;2022-07-29T05:47:25;24.00;99.90
17849;DHT22;9050;48.746;9.232;2022-07-29T05:49:52;23.60;99.90
17849;DHT22;9050;48.746;9.232;2022-07-29T05:52:19;23.70;99.90
17849;DHT22;9050;48.746;9.232;2022-07-29T05:54:48;24.60;99.90
17849;DHT22;9050;48.746;9.232;2022-07-29T05:57:18;24.80;99.90
17849;DHT22;9050;48.746;9.232;2022-07-29T05:59:46;24.70;99.90
17849;DHT22;9050;48.746;9.232;2022-07-29T06:02:13;23.50;99.90
17849;DHT22;9050;48.746;9.232;2022-07-29T06:04:41;23.30;99.90
17849;DHT22;9050;48.746;9.232;2022-07-29T06:07:08;24.00;99.90
17849;DHT22;9050;48.746;9.232;2022-07-29T06:09:35;25.00;99.90
17849;DHT22;9050;48.746;9.232;2022-07-29T06:12:04;25.30;99.90
17849;DHT22;9050;48.746;9.232;2022-07-29T06:14:31;26.30;99.90
17849;DHT22;9050;48.746;9.232;2022-07-29T06:16:58;27.10;99.90
17849;DHT22;9050;48.746;9.232;2022-07-29T06:19:25;26.80;99.90
17849;DHT22;9050;48.746;9.232;2022-07-29T06:21:51;27.20;99.90
17849;DHT22;9050;48.746;9.232;2022-07-29T06:24:18;26.30;99.90
17849;DHT22;9050;48.746;9.232;2022-07-29T06:26:45;26.90;99.90
17849;DHT22;9050;48.746;9.232;2022-07-29T06:29:14;27.70;99.90
17849;DHT22;9050;48.746;9.232;2022-07-29T06:31:41;28.10;99.90
17849;DHT22;9050;48.746;9.232;2022-07-29T06:34:07;29.60;99.90
17849;DHT22;9050;48.746;9.232;2022-07-29T06:36:35;31.20;99.90
17849;DHT22;9050;48.746;9.232;2022-07-29T06:39:04;31.50;99.90
17849;DHT22;9050;48.746;9.232;2022-07-29T06:41:32;30.70;99.90
17849;DHT22;9050;48.746;9.232;2022-07-29T06:43:59;32.60;99.90
17849;DHT22;9050;48.746;9.232;2022-07-29T06:46:27;33.90;99.90
17849;DHT22;9050;48.746;9.232;2022-07-29T06:48:55;33.80;99.90
17849;DHT22;9050;48.746;9.232;2022-07-29T06:51:22;31.70;99.90
17849;DHT22;9050;48.746;9.232;2022-07-29T06:53:51;31.20;99.90
17849;DHT22;9050;48.746;9.232;2022-07-29T06:56:18;32.50;99.90
17849;DHT22;9050;48.746;9.232;2022-07-29T06:58:45;33.80;99.90
17849;DHT22;9050;48.746;9.232;2022-07-29T07:01:12;33.20;99.90
17849;DHT22;9050;48.746;9.232;2022-07-29T07:03:41;32.90;99.90
17849;DHT22;9050;48.746;9.232;2022-07-29T07:06:08;32.40;99.90
17849;DHT22;9050;48.746;9.232;2022-07-29T07:08:35;31.90;99.90
17849;DHT22;9050;48.746;9.232;2022-07-29T07:11:02;31.00;99.90
17849;DHT22;9050;48.746;9.232;2022-07-29T07:13:29;31.90;99.90
17849;DHT22;9050;48.746;9.232;2022-07-29T07:16:00;31.90;99.90
17849;DHT22;9050;48.746;9.232;2022-07-29T07:18:26;32.10;99.90
17849;DHT22;9050;48.746;9.232;2022-07-29T07:20:55;31.10;99.90
17849;DHT22;9050;48.746;9.232;2022-07-29T07:23:22;31.70;99.90
17849;DHT22;9050;48.746;9.232;2022-07-29T07:25:50;31.50;99.90
17849;DHT22;9050;48.746;9.232;2022-07-29T07:28:18;32.40;99.90
17849;DHT22;9050;48.746;9.232;2022-07-29T07:30:45;32.30;99.90
17849;DHT22;9050;48.746;9.232;2022-07-29T07:33:12;30.00;99.90
17849;DHT22;9050;48.746;9.232;2022-07-29T07:35:39;29.40;99.90
17849;DHT22;9050;48.746;9.232;2022-07-29T07:38:08;29.70;99.90
17849;DHT22;9050;48.746;9.232;2022-07-29T07:40:35;29.00;99.90
17849;DHT22;9050;48.746;9.232;2022-07-29T07:43:02;28.80;99.90
17849;DHT22;9050;48.746;9.232;2022-07-29T07:45:29;28.60;99.90
17849;DHT22;9050;48.746;9.232;2022-07-29T07:47:57;28.60;99.90
17849;DHT22;9050;48.746;9.232;2022-07-29T07:50:25;29.40;99.90
17849;DHT22;9050;48.746;9.232;2022-07-29T07:52:53;30.70;99.90
17849;DHT22;9050;48.746;9.232;2022-07-29T07:55:22;31.90;99.90
17849;DHT22;9050;48.746;9.232;2022-07-29T07:57:49;32.20;99.90
17849;DHT22;9050;48.746;9.232;2022-07-29T08:00:17;31.60;99.90
17849;DHT22;9050;48.746;9.232;2022-07-29T08:02:44;31.90;99.90
17849;DHT22;9050;48.746;9.232;2022-07-29T08:05:12;31.20;99.90
17849;DHT22;9050;48.746;9.232;2022-07-29T08:07:43;30.60;99.90
17849;DHT22;9050;48.746;9.232;2022-07-29T08:10:10;30.70;99.90
17849;DHT22;9050;48.746;9.232;2022-07-29T08:12:39;30.50;99.90
17849;DHT22;9050;48.746;9.232;2022-07-29T08:15:07;31.50;99.90
17849;DHT22;9050;48.746;9.232;2022-07-29T08:17:34;33.00;99.90
17849;DHT22;9050;48.746;9.232;2022-07-29T08:20:02;33.10;99.90
17849;DHT22;9050;48.746;9.232;2022-07-29T08:22:29;33.00;99.90
17849;DHT22;9050;48.746;9.232;2022-07-29T08:24:56;33.90;99.90
17849;DHT22;9050;48.746;9.232;2022-07-29T08:27:23;33.00;99.90
17849;DHT22;9050;48.746;9.232;2022-07-29T08:29:53;31.50;99.90
17849;DHT22;9050;48.746;9.232;2022-07-29T08:32:21;31.80;99.90
17849;DHT22;9050;48.746;9.232;2022-07-29T08:34:48;31.80;99.90
17849;DHT22;9050;48.746;9.232;2022-07-29T08:37:14;32.70;99.90
17849;DHT22;9050;48.746;9.232;2022-07-29T08:39:42;31.30;99.90
17849;DHT22;9050;48.746;9.232;2022-07-29T08:42:08;32.70;99.90
17849;DHT22;9050;48.746;9.232;2022-07-29T08:44:37;31.80;99.90
17849;DHT22;9050;48.746;9.232;2022-07-29T08:47:06;31.50;99.90
17849;DHT22;9050;48.746;9.232;2022-07-29T08:49:34;32.10;99.90
17849;DHT22;9050;48.746;9.232;2022-07-29T08:52:02;32.10;99.90
17849;DHT22;9050;48.746;9.232;2022-07-29T08:54:29;32.50;99.90
17849;DHT22;9050;48.746;9.232;2022-07-29T08:56:57;32.30;99.90
17849;DHT22;9050;48.746;9.232;2022-07-29T08:59:26;30.10;99.90
17849;DHT22;9050;48.746;9.232;2022-07-29T09:01:54;30.00;99.90
17849;DHT22;9050;48.746;9.232;2022-07-29T09:04:27;29.30;99.90
17849;DHT22;9050;48.746;9.232;2022-07-29T09:06:57;28.80;99.90
17849;DHT22;9050;48.746;9.232;2022-07-29T09:09:27;28.60;99.90
17849;DHT22;9050;48.746;9.232;2022-07-29T09:11:54;27.70;99.90
17849;DHT22;9050;48.746;9.232;2022-07-29T09:14:21;26.90;99.90
17849;DHT22;9050;48.746;9.232;2022-07-29T09:16:53;26.60;99.90
17849;DHT22;9050;48.746;9.232;2022-07-29T09:19:35;26.00;99.90
17849;DHT22;9050;48.746;9.232;2022-07-29T09:22:03;26.00;99.90
17849;DHT22;9050;48.746;9.232;2022-07-29T09:24:41;25.90;99.90
17849;DHT22;9050;48.746;9.232;2022-07-29T09:27:11;25.90;99.90
17849;DHT22;9050;48.746;9.232;2022-07-29T09:29:44;25.60;99.90
17849;DHT22;9050;48.746;9.232;2022-07-29T09:32:11;25.00;99.90
17849;DHT22;9050;48.746;9.232;2022-07-29T09:34:40;25.10;99.90
17849;DHT22;9050;48.746;9.232;2022-07-29T09:37:07;25.50;99.90
17849;DHT22;9050;48.746;9.232;2022-07-29T09:39:35;26.00;99.90
17849;DHT22;9050;48.746;9.232;2022-07-29T09:42:04;25.80;99.90
17849;DHT22;9050;48.746;9.232;2022-07-29T09:44:42;26.00;99.90
17849;DHT22;9050;48.746;9.232;2022-07-29T09:47:09;26.20;99.90
17849;DHT22;9050;48.746;9.232;2022-07-29T09:49:52;26.20;99.90
17849;DHT22;9050;48.746;9.232;2022-07-29T09:52:20;26.20;99.90
17849;DHT22;9050;48.746;9.232;2022-07-29T09:54:47;26.60;99.90
17849;DHT22;9050;48.746;9.232;2022-07-29T09:57:25;26.80;99.90
17849;DHT22;9050;48.746;9.232;2022-07-29T09:59:57;26.90;99.90
17849;DHT22;9050;48.746;9.232;2022-07-29T10:02:29;26.90;99.90
17849;DHT22;9050;48.746;9.232;2022-07-29T10:04:58;26.80;99.90
17849;DHT22;9050;48.746;9.232;2022-07-29T10:07:26;26.70;99.90
17849;DHT22;9050;48.746;9.232;2022-07-29T10:09:54;27.20;99.90
17849;DHT22;9050;48.746;9.232;2022-07-29T10:12:22;27.50;99.90
17849;DHT22;9050;48.746;9.232;2022-07-29T10:14:50;27.40;99.90
17849;DHT22;9050;48.746;9.232;2022-07-29T10:17:17;27.80;99.90
17849;DHT22;9050;48.746;9.232;2022-07-29T10:19:44;27.90;99.90
17849;DHT22;9050;48.746;9.232;2022-07-29T10:22:13;27.90;99.90
17849;DHT22;9050;48.746;9.232;2022-07-29T10:24:40;27.50;99.90
17849;DHT22;9050;48.746;9.232;2022-07-29T10:27:08;27.20;99.90
17849;DHT22;9050;48.746;9.232;2022-07-29T10:29:35;26.50;99.90
17849;DHT22;9050;48.746;9.232;2022-07-29T10:32:33;26.40;99.90
17849;DHT22;9050;48.746;9.232;2022-07-29T10:35:18;26.90;99.90
17849;DHT22;9050;48.746;9.232;2022-07-29T10:38:25;26.90;99.90
17849;DHT22;9050;48.746;9.232;2022-07-29T10:41:00;27.40;99.90
17849;DHT22;9050;48.746;9.232;2022-07-29T10:43:48;27.00;99.90
17849;DHT22;9050;48.746;9.232;2022-07-29T10:46:15;27.20;99.90
17849;DHT22;9050;48.746;9.232;2022-07-29T10:49:05;27.10;99.90
17849;DHT22;9050;48.746;9.232;2022-07-29T10:51:58;26.60;99.90
17849;DHT22;9050;48.746;9.232;2022-07-29T10:54:53;26.30;99.90
17849;DHT22;9050;48.746;9.232;2022-07-29T10:57:26;25.60;99.90
17849;DHT22;9050;48.746;9.232;2022-07-29T11:00:25;25.50;99.90
17849;DHT22;9050;48.746;9.232;2022-07-29T11:02:52;25.20;99.90
17849;DHT22;9050;48.746;9.232;2022-07-29T11:05:22;25.10;99.90
17849;DHT22;9050;48.746;9.232;2022-07-29T11:13:49;22.30;99.90
17849;DHT22;9050;48.746;9.232;2022-07-29T11:16:18;20.60;99.90
17849;DHT22;9050;48.746;9.232;2022-07-29T11:19:21;19.00;99.90
17849;DHT22;9050;48.746;9.232;2022-07-29T11:21:48;18.10;99.90
17849;DHT22;9050;48.746;9.232;2022-07-29T11:24:19;17.60;99.90
17849;DHT22;9050;48.746;9.232;2022-07-29T11:29:53;15.80;99.90
17849;DHT22;9050;48.746;9.232;2022-07-29T11:32:22;15.60;99.90
17849;DHT22;9050;48.746;9.232;2022-07-29T11:35:10;15.60;99.90
17849;DHT22;9050;48.746;9.232;2022-07-29T11:37:38;16.00;99.90
17849;DHT22;9050;48.746;9.232;2022-07-29T11:40:11;16.40;99.90
17849;DHT22;9050;48.746;9.232;2022-07-29T11:42:51;16.40;99.90
17849;DHT22;9050;48.746;9.232;2022-07-29T11:45:25;16.30;99.90
17849;DHT22;9050;48.746;9.232;2022-07-29T11:47:59;16.20;99.90
17849;DHT22;9050;48.746;9.232;2022-07-29T11:50:32;16.30;99.90
17849;DHT22;9050;48.746;9.232;2022-07-29T11:53:00;16.30;99.90
17849;DHT22;9050;48.746;9.232;2022-07-29T11:55:27;16.30;99.90
17849;DHT22;9050;48.746;9.232;2022-07-29T11:57:58;16.50;99.90
17849;DHT22;9050;48.746;9.232;2022-07-29T12:00:29;16.30;99.90
17849;DHT22;9050;48.746;9.232;2022-07-29T12:02:58;16.30;99.90
17849;DHT22;9050;48.746;9.232;2022-07-29T12:05:40;16.40;99.90
17849;DHT22;9050;48.746;9.232;2022-07-29T12:08:13;16.30;99.90
17849;DHT22;9050;48.746;9.232;2022-07-29T12:10:42;16.50;99.90
17849;DHT22;9050;48.746;9.232;2022-07-29T12:13:10;16.50;99.90
17849;DHT22;9050;48.746;9.232;2022-07-29T12:15:39;16.70;99.90
17849;DHT22;9050;48.746;9.232;2022-07-29T12:18:10;16.70;99.90
17849;DHT22;9050;48.746;9.232;2022-07-29T12:20:38;16.70;99.90
17849;DHT22;9050;48.746;9.232;2022-07-29T12:23:06;16.90;99.90
17849;DHT22;9050;48.746;9.232;2022-07-29T12:25:37;16.90;99.90
17849;DHT22;9050;48.746;9.232;2022-07-29T12:28:06;17.10;99.90
17849;DHT22;9050;48.746;9.232;2022-07-29T12:30:36;17.20;99.90
17849;DHT22;9050;48.746;9.232;2022-07-29T12:33:16;17.50;99.90
17849;DHT22;9050;48.746;9.232;2022-07-29T12:35:45;17.90;99.90
17849;DHT22;9050;48.746;9.232;2022-07-29T12:38:13;18.00;99.90
17849;DHT22;9050;48.746;9.232;2022-07-29T12:40:41;18.50;99.90
17849;DHT22;9050;48.746;9.232;2022-07-29T12:43:10;18.80;99.90
17849;DHT22;9050;48.746;9.232;2022-07-29T12:45:38;18.70;99.90
17849;DHT22;9050;48.746;9.232;2022-07-29T12:48:06;18.50;99.90
17849;DHT22;9050;48.746;9.232;2022-07-29T12:50:37;18.40;99.90
17849;DHT22;9050;48.746;9.232;2022-07-29T12:53:17;18.20;99.90
17849;DHT22;9050;48.746;9.232;2022-07-29T12:55:46;18.10;99.90
17849;DHT22;9050;48.746;9.232;2022-07-29T12:58:29;18.10;99.90
17849;DHT22;9050;48.746;9.232;2022-07-29T13:01:08;18.10;99.90
17849;DHT22;9050;48.746;9.232;2022-07-29T13:03:49;18.10;99.90
17849;DHT22;9050;48.746;9.232;2022-07-29T13:06:33;18.20;99.90
17849;DHT22;9050;48.746;9.232;2022-07-29T13:09:03;18.20;99.90
17849;DHT22;9050;48.746;9.232;2022-07-29T13:11:30;18.40;99.90
17849;DHT22;9050;48.746;9.232;2022-07-29T13:13:58;18.70;99.90
17849;DHT22;9050;48.746;9.232;2022-07-29T13:16:25;18.90;99.90
17849;DHT22;9050;48.746;9.232;2022-07-29T13:19:04;19.00;99.90
17849;DHT22;9050;48.746;9.232;2022-07-29T13:21:33;19.10;99.90
17849;DHT22;9050;48.746;9.232;2022-07-29T13:24:00;19.20;99.90
17849;DHT22;9050;48.746;9.232;2022-07-29T13:26:27;19.10;99.90
17849;DHT22;9050;48.746;9.232;2022-07-29T13:28:54;19.00;99.90
17849;DHT22;9050;48.746;9.232;2022-07-29T13:31:21;18.90;99.90
17849;DHT22;9050;48.746;9.232;2022-07-29T13:33:48;18.90;99.90
17849;DHT22;9050;48.746;9.232;2022-07-29T13:36:16;18.80;99.90
17849;DHT22;9050;48.746;9.232;2022-07-29T13:38:44;18.80;99.90
17849;DHT22;9050;48.746;9.232;2022-07-29T13:41:11;18.90;99.90
17849;DHT22;9050;48.746;9.232;2022-07-29T13:43:38;18.90;99.90
17849;DHT22;9050;48.746;9.232;2022-07-29T13:46:05;19.00;99.90
17849;DHT22;9050;48.746;9.232;2022-07-29T13:48:36;19.10;99.90
17849;DHT22;9050;48.746;9.232;2022-07-29T13:51:03;19.10;99.90
17849;DHT22;9050;48.746;9.232;2022-07-29T13:53:30;19.20;99.90
17849;DHT22;9050;48.746;9.232;2022-07-29T13:55:59;19.30;99.90
17849;DHT22;9050;48.746;9.232;2022-07-29T13:58:26;19.60;99.90
17849;DHT22;9050;48.746;9.232;2022-07-29T14:00:53;19.80;99.90
17849;DHT22;9050;48.746;9.232;2022-07-29T14:03:20;20.10;99.90
17849;DHT22;9050;48.746;9.232;2022-07-29T14:05:47;20.20;99.90
17849;DHT22;9050;48.746;9.232;2022-07-29T14:08:14;20.30;99.90
17849;DHT22;9050;48.746;9.232;2022-07-29T14:10:41;20.60;99.90
17849;DHT22;9050;48.746;9.232;2022-07-29T14:13:10;20.90;99.90
17849;DHT22;9050;48.746;9.232;2022-07-29T14:15:37;21.10;99.90
17849;DHT22;9050;48.746;9.232;2022-07-29T14:18:04;21.30;99.90
17849;DHT22;9050;48.746;9.232;2022-07-29T14:20:31;21.60;99.90
17849;DHT22;9050;48.746;9.232;2022-07-29T14:22:58;21.80;99.90
17849;DHT22;9050;48.746;9.232;2022-07-29T14:25:25;21.80;99.90
17849;DHT22;9050;48.746;9.232;2022-07-29T14:27:52;21.80;99.90
17849;DHT22;9050;48.746;9.232;2022-07-29T14:30:21;22.00;99.90
17849;DHT22;9050;48.746;9.232;2022-07-29T14:32:47;21.90;99.90
17849;DHT22;9050;48.746;9.232;2022-07-29T14:35:15;21.90;99.90
17849;DHT22;9050;48.746;9.232;2022-07-29T14:37:41;21.90;99.90
17849;DHT22;9050;48.746;9.232;2022-07-29T14:40:09;21.80;99.90
17849;DHT22;9050;48.746;9.232;2022-07-29T14:42:37;21.70;99.90
17849;DHT22;9050;48.746;9.232;2022-07-29T14:45:05;21.80;99.90
17849;DHT22;9050;48.746;9.232;2022-07-29T14:47:34;21.70;99.90
17849;DHT22;9050;48.746;9.232;2022-07-29T14:50:01;21.60;99.90
17849;DHT22;9050;48.746;9.232;2022-07-29T14:52:28;21.40;99.90
17849;DHT22;9050;48.746;9.232;2022-07-29T14:54:54;21.50;99.90
17849;DHT22;9050;48.746;9.232;2022-07-29T14:57:21;21.40;99.90
17849;DHT22;9050;48.746;9.232;2022-07-29T14:59:49;21.50;99.90
17849;DHT22;9050;48.746;9.232;2022-07-29T15:02:16;21.70;99.90
17849;DHT22;9050;48.746;9.232;2022-07-29T15:04:44;21.60;99.90
17849;DHT22;9050;48.746;9.232;2022-07-29T15:07:11;21.60;99.90
17849;DHT22;9050;48.746;9.232;2022-07-29T15:09:38;21.60;99.90
17849;DHT22;9050;48.746;9.232;2022-07-29T15:12:05;21.50;99.90
17849;DHT22;9050;48.746;9.232;2022-07-29T15:14:32;21.50;99.90
17849;DHT22;9050;48.746;9.232;2022-07-29T15:16:59;21.70;99.90
17849;DHT22;9050;48.746;9.232;2022-07-29T15:19:26;21.60;99.90
17849;DHT22;9050;48.746;9.232;2022-07-29T15:21:55;21.60;99.90
17849;DHT22;9050;48.746;9.232;2022-07-29T15:24:22;21.60;99.90
17849;DHT22;9050;48.746;9.232;2022-07-29T15:26:49;21.60;99.90
17849;DHT22;9050;48.746;9.232;2022-07-29T15:29:16;21.70;99.90
17849;DHT22;9050;48.746;9.232;2022-07-29T15:31:43;21.60;99.90
17849;DHT22;9050;48.746;9.232;2022-07-29T15:34:09;21.60;99.90
17849;DHT22;9050;48.746;9.232;2022-07-29T15:36:36;21.50;99.90
17849;DHT22;9050;48.746;9.232;2022-07-29T15:39:04;21.50;99.90
17849;DHT22;9050;48.746;9.232;2022-07-29T15:41:32;21.40;99.90
17849;DHT22;9050;48.746;9.232;2022-07-29T15:44:00;21.40;99.90
17849;DHT22;9050;48.746;9.232;2022-07-29T15:46:27;21.40;99.90
17849;DHT22;9050;48.746;9.232;2022-07-29T15:49:11;21.30;99.90
17849;DHT22;9050;48.746;9.232;2022-07-29T15:51:38;21.40;99.90
17849;DHT22;9050;48.746;9.232;2022-07-29T15:54:07;21.40;99.90
17849;DHT22;9050;48.746;9.232;2022-07-29T15:56:34;21.40;99.90
17849;DHT22;9050;48.746;9.232;2022-07-29T15:59:01;21.50;99.90
17849;DHT22;9050;48.746;9.232;2022-07-29T16:01:28;21.50;99.90
17849;DHT22;9050;48.746;9.232;2022-07-29T16:03:55;21.70;99.90
17849;DHT22;9050;48.746;9.232;2022-07-29T16:06:23;21.60;99.90
17849;DHT22;9050;48.746;9.232;2022-07-29T16:08:50;21.60;99.90
17849;DHT22;9050;48.746;9.232;2022-07-29T16:11:21;21.80;99.90